Aeroporto :
LOGIN :

Iscrizione | Disclaimer

   EN    FR    IT 

 










Sommario :    VFR   VFR Marginale   IFR   IFR Intensivo   IFR Molto Intensivo
Visibilità : 
Base nubi : 
>= 8 km
>= 3000ft
5 / 8 km
1000 / 3000 ft
1500m / 5 km
500 / 1000 ft
800 / 1500m
200 / 500 ft
< 800m
< 200 ft
Simboli :   Temporali  Nebbia  Neve Forte  Precipitazioni Forti  Vento > 20 kt
SIGMETs :   Varie  Temporali  Ghiacco  Turbolenza  Onda orograficha  Ceneri Vulcaniche






- Altitudine del aeroporto : 220 ft
- Codice IATA : CWL


EGFF - Cardiff Rhoose

ULTIMO METAR :
  • 240820Z AUTO 01005KT 320V030 9999 NCD 10/04 Q1019

METARs OBSOLETI :
  • 240750Z AUTO 02005KT 9999 NCD 09/04 Q1019
  • 240720Z AUTO 36005KT 9999 NCD 08/04 Q1018
  • 240650Z AUTO 35005KT 9999 BKN034 07/03 Q1018
  • 240620Z AUTO 36005KT 9999 FEW035 06/03 Q1019
  • 240550Z AUTO 36003KT 9999 NCD 05/02 Q1019
  • 240520Z AUTO 02004KT 9999 BKN049 05/02 Q1019
  • 240450Z AUTO 01004KT 9999 BKN042 05/03 Q1019
  • 240420Z AUTO 36005KT 9999 SCT031 BKN047 06/03 Q1019
  • 240350Z AUTO 02005KT 9999 SCT032 BKN045 06/03 Q1020

TAF TAF EGFF
Valido dal 24 a 06 ore il 25 a 06 ore UTC


240457Z 2406/2506 02005KT 9999 SCT040
BECMG 2415/2418 25010KT
BECMG 2421/2424 31010KT
ATIS : +44 1446 729 319



MetMap, La meteo Aeronautica in un colpo d'occhio ! - Copyright ORBIFLY Dicembre 2007 - Disclaimer

ORBIFLY MET'MAP TEAM :

Programmazione e sviluppo : Alexandra Zaïnal
Concezione : Baudouin d'Aumeries
Supporto tecnico e logistico : Manuel Goepfert
Aiuto : Marc-Olivier Méhu
Aiuto per la traduzione : Arnaldo La Scala




FONTI E CREDITI :

   NOAA